Skip Navigation Links Skip Navigation Links

Current Weather

Tweed-New Haven, New Haven, Conn.

For information only: do not use for flight planning or navigation.
Latest weather
Observation time Thursday, November 14, 2019 7:53 PM EST
Local time Thursday, November 14, 2019 8:09 PM EST
Flight conditions Visual Meteorological Conditions
Winds
Wind direction Southwest (220°)
Wind speed 15 mph
Wind gusting to 22 mph
Visibility 10 mi.
Sky condition
Ceiling unlimited
Cloud layer few clouds 3,000 ft.
Temperature 49°F
Dewpoint 35°F
Altimeter 30.29 in.Hg
Derived measurements
Relative humidity 59%
Wind chill 43°F
Density altitude -974 ft.
Sea-level pressure 30.28 in.Hg
Remarks
Automated weather observing station with precipitation discriminator.
METAR KHVN 150053Z 22013G19KT 10SM FEW030 09/02 A3029 RMK AO2 SLP255 T00940017

Settings

Location code

InnerDrive.Weather 4.0.6770.0 Release CLR 4.0.30319.42000
Copyright ©2018 Inner Drive Technology. All rights reserved. Portions Copyright ©1986-2018 David Braverman.

Find weather

Site navigation


Skip Navigation Links

Place info

Page info

PayPal - The safer, easier way to pay online!

Return home.

Copyright ©2019 Inner Drive Technology. Purveyors of fine, hand-crafted computer software. Page printed 2019-11-15T01:09:08 UTC.